Time;durP1;ratioP1;P1;durP2;ratioP2;P2;SDS_P1;SDS_P2;PMS_P1;PMS_P2;Temp;Humidity;BMP_temperature;BMP_pressure;BME280_temperature;BME280_humidity;BME280_pressure;Samples;Min_cycle;Max_cycle;Signal;HPM_P1;HPM_P2
2021/04/09 00:01:44;;;;;;;13.90;9.52;;;;;;;17.37;30.71;95266.06;5016215;28;96883;-53
2021/04/09 00:04:14;;;;;;;11.70;8.60;;;;;;;17.35;30.79;95280.09;5014997;28;99438;-51
2021/04/09 00:06:39;;;;;;;11.32;8.32;;;;;;;17.36;30.92;95280.88;5015218;28;99327;-53
2021/04/09 00:09:09;;;;;;;14.38;8.38;;;;;;;17.33;30.87;95282.41;5016012;28;96860;-51
2021/04/09 00:11:34;;;;;;;11.38;8.00;;;;;;;17.31;30.91;95284.69;5015972;28;96898;-52
2021/04/09 00:14:00;;;;;;;15.32;9.85;;;;;;;17.34;31.10;95286.72;5022998;28;99410;-52
2021/04/09 00:16:25;;;;;;;12.88;9.20;;;;;;;17.32;31.07;95289.00;5035421;27;99475;-58
2021/04/09 00:18:51;;;;;;;16.15;11.27;;;;;;;17.35;31.24;95288.28;5036151;28;97252;-57
2021/04/09 00:21:16;;;;;;;14.07;10.38;;;;;;;17.29;31.17;95278.81;5035851;28;96989;-57
2021/04/09 00:23:42;;;;;;;12.63;9.82;;;;;;;17.29;31.11;95284.28;5035020;28;99981;-56
2021/04/09 00:26:07;;;;;;;13.48;9.23;;;;;;;17.29;31.19;95278.81;5035342;28;99397;-53
2021/04/09 00:28:33;;;;;;;11.15;7.82;;;;;;;17.30;30.99;95274.94;5034850;27;96713;-54
2021/04/09 00:30:58;;;;;;;11.07;7.85;;;;;;;17.29;31.12;95278.81;5035564;27;96919;-54
2021/04/09 00:33:24;;;;;;;10.43;7.28;;;;;;;17.28;31.12;95272.56;5035300;28;99531;-50
2021/04/09 00:35:49;;;;;;;10.77;8.00;;;;;;;17.26;31.10;95269.38;5035215;28;99388;-49
2021/04/09 00:38:15;;;;;;;11.40;8.80;;;;;;;17.25;31.34;95262.34;5035447;27;96828;-51
2021/04/09 00:40:40;;;;;;;14.95;11.20;;;;;;;17.26;31.31;95257.69;5035642;27;96877;-60
2021/04/09 00:43:07;;;;;;;14.75;10.60;;;;;;;17.29;31.56;95256.97;5034764;28;99308;-52
2021/04/09 00:45:36;;;;;;;14.65;10.77;;;;;;;17.30;31.65;95253.88;5035044;28;99230;-58
2021/04/09 00:48:02;;;;;;;13.82;9.40;;;;;;;17.30;31.62;95269.47;5034457;28;96620;-57
2021/04/09 00:50:28;;;;;;;23.50;9.57;;;;;;;17.31;31.59;95254.66;5035348;27;97377;-60
2021/04/09 00:52:54;;;;;;;11.30;7.38;;;;;;;17.27;32.09;95272.94;5034352;28;98942;-55
2021/04/09 00:55:19;;;;;;;12.18;7.30;;;;;;;17.22;31.82;95263.06;5032565;28;99670;-57
2021/04/09 00:57:45;;;;;;;14.27;8.43;;;;;;;17.27;31.70;95270.97;5035102;27;96703;-55
2021/04/09 01:00:11;;;;;;;13.05;9.45;;;;;;;17.24;31.73;95271.69;5035134;28;96900;-56
2021/04/09 01:02:37;;;;;;;13.27;9.75;;;;;;;17.25;31.77;95261.56;5034337;27;99985;-57
2021/04/09 01:05:05;;;;;;;12.30;9.65;;;;;;;17.24;32.01;95270.91;5034626;27;98951;-52
2021/04/09 01:07:31;;;;;;;13.00;9.65;;;;;;;17.22;32.18;95271.25;5035126;27;96549;-53
2021/04/09 01:09:56;;;;;;;13.43;9.55;;;;;;;17.22;32.16;95273.22;5035585;27;96971;-58
2021/04/09 01:12:22;;;;;;;8.88;7.40;;;;;;;17.24;32.49;95276.38;5034245;28;99571;-54
2021/04/09 01:14:47;;;;;;;9.88;7.63;;;;;;;17.23;32.29;95275.56;5034323;27;99334;-54
2021/04/09 01:17:38;;;;;;;9.63;7.38;;;;;;;17.25;32.48;95277.97;5034080;28;96694;-57
2021/04/09 01:20:36;;;;;;;11.10;8.50;;;;;;;17.23;32.10;95285.72;5033210;28;96808;-53
2021/04/09 01:23:21;;;;;;;9.93;8.30;;;;;;;17.22;32.39;95279.47;5033294;27;99790;-54
2021/04/09 01:26:14;;;;;;;13.15;10.85;;;;;;;17.24;31.73;95282.63;5031592;28;99407;-56
2021/04/09 01:31:03;;;;;;;8.88;7.00;;;;;;;17.38;31.79;95271.16;5013459;28;96646;-51
2021/04/09 01:33:36;;;;;;;11.32;7.07;;;;;;;17.38;31.68;95271.16;5009204;28;96805;-51
2021/04/09 01:36:24;;;;;;;9.52;6.90;;;;;;;17.44;31.55;95274.38;4994565;28;99449;-48
2021/04/09 01:38:59;;;;;;;7.60;6.20;;;;;;;17.49;31.92;95271.38;4992924;28;99035;-48
2021/04/09 01:41:25;;;;;;;7.07;4.47;;;;;;;17.58;31.87;95269.19;4988912;28;96808;-46
2021/04/09 01:43:50;;;;;;;4.38;3.70;;;;;;;17.70;31.70;95265.47;4974531;28;97160;-45
2021/04/09 01:46:16;;;;;;;4.60;3.72;;;;;;;17.83;33.57;95262.53;4998414;28;99461;-48
2021/04/09 01:48:43;;;;;;;5.78;3.42;;;;;;;17.82;34.30;95271.91;4990500;28;97778;-48
2021/04/09 01:51:09;;;;;;;3.83;3.40;;;;;;;17.88;34.63;95259.50;4990786;28;97168;-49
2021/04/09 01:53:35;;;;;;;3.33;2.85;;;;;;;17.94;34.43;95263.50;5015897;28;96907;-50
2021/04/09 01:56:00;;;;;;;3.17;2.88;;;;;;;17.95;34.43;95261.53;4973648;28;99367;-50
2021/04/09 01:58:27;;;;;;;2.50;2.30;;;;;;;17.98;34.21;95261.59;4988630;28;99519;-45
2021/04/09 02:00:53;;;;;;;2.50;2.20;;;;;;;18.06;34.00;95273.47;4990556;28;96775;-47
2021/04/09 02:03:21;;;;;;;2.63;2.42;;;;;;;18.04;34.19;95268.34;4985585;28;96923;-46
2021/04/09 02:05:47;;;;;;;3.33;3.03;;;;;;;18.07;33.79;95272.31;5007492;28;99493;-46
2021/04/09 02:08:13;;;;;;;5.63;3.63;;;;;;;18.15;33.69;95273.19;4991753;28;99497;-47
2021/04/09 02:10:38;;;;;;;4.63;3.25;;;;;;;18.12;33.54;95273.94;4974590;28;96777;-48
2021/04/09 02:13:04;;;;;;;4.82;3.83;;;;;;;18.08;33.36;95269.19;4991655;28;96880;-48
2021/04/09 02:15:29;;;;;;;4.85;3.92;;;;;;;18.10;33.73;95259.84;5007392;28;98995;-49
2021/04/09 02:17:55;;;;;;;4.07;3.05;;;;;;;18.16;36.25;95281.03;4991757;28;99409;-51
2021/04/09 02:20:21;;;;;;;2.78;2.20;;;;;;;18.15;37.18;95274.00;4991016;28;96690;-50
2021/04/09 02:22:47;;;;;;;2.10;2.00;;;;;;;18.20;37.65;95284.63;4992013;28;96904;-48
2021/04/09 02:25:13;;;;;;;1.20;1.20;;;;;;;18.25;37.63;95286.25;4991432;28;99717;-46
2021/04/09 02:27:39;;;;;;;1.30;1.20;;;;;;;18.25;37.95;95282.72;4991089;28;99271;-52
2021/04/09 02:30:06;;;;;;;1.83;1.58;;;;;;;18.24;37.49;95287.41;4990172;28;97052;-46
2021/04/09 02:32:31;;;;;;;4.72;2.30;;;;;;;18.27;39.13;95294.88;4992311;28;97136;-46
2021/04/09 02:34:57;;;;;;;2.05;1.50;;;;;;;18.34;39.91;95292.25;4991724;28;100585;-50
2021/04/09 02:37:22;;;;;;;3.15;1.33;;;;;;;18.41;40.58;95290.75;4991249;28;99523;-48
2021/04/09 02:39:49;;;;;;;1.63;1.10;;;;;;;18.40;40.60;95302.88;4989531;28;96718;-48
2021/04/09 02:42:15;;;;;;;0.73;0.73;;;;;;;18.29;40.80;95289.81;4976831;28;97473;-46
2021/04/09 02:44:40;;;;;;;1.17;0.60;;;;;;;18.45;40.79;95308.03;5009750;28;99854;-46
2021/04/09 02:47:12;;;;;;;0.65;0.65;;;;;;;18.51;40.91;95306.53;5010084;28;98714;-47
2021/04/09 02:49:45;;;;;;;0.60;0.50;;;;;;;18.48;40.74;95296.34;4978334;28;96673;-46
2021/04/09 02:52:14;;;;;;;0.40;0.40;;;;;;;18.43;40.89;95297.44;4978556;28;96702;-47
2021/04/09 02:54:39;;;;;;;1.10;0.40;;;;;;;18.41;40.52;95286.06;4977766;28;99325;-49
2021/04/09 02:57:05;;;;;;;0.30;0.30;;;;;;;18.48;40.21;95290.88;4976236;28;99343;-47
2021/04/09 02:59:30;;;;;;;0.30;0.30;;;;;;;18.46;40.50;95293.19;4978474;28;96887;-47
2021/04/09 03:01:56;;;;;;;0.35;0.35;;;;;;;18.47;40.06;95286.56;4977009;28;96818;-52
2021/04/09 03:04:21;;;;;;;0.35;0.35;;;;;;;18.48;40.16;95301.81;4977549;28;99598;-48
2021/04/09 03:06:47;;;;;;;0.40;0.40;;;;;;;18.50;40.21;95291.28;4976575;28;97904;-47
2021/04/09 03:09:12;;;;;;;0.50;0.50;;;;;;;18.47;39.99;95294.75;5009998;28;96958;-47
2021/04/09 03:11:43;;;;;;;0.30;0.30;;;;;;;18.51;39.70;95290.91;4993042;28;97011;-48
2021/04/09 03:14:09;;;;;;;0.30;0.30;;;;;;;18.47;39.55;95302.97;4976316;28;99602;-47
2021/04/09 03:16:42;;;;;;;0.40;0.40;;;;;;;18.47;39.61;95295.53;4977608;28;98887;-46
2021/04/09 03:19:07;;;;;;;0.38;0.38;;;;;;;18.49;39.37;95314.31;4994081;28;96613;-46
2021/04/09 18:15:22;;;;;;;1.45;1.30;;;;;;;16.80;39.00;95318.38;5034925;28;96400;-44
2021/04/09 18:17:48;;;;;;;1.67;1.30;;;;;;;16.95;38.99;95316.72;5032995;27;96914;-45
2021/04/09 18:20:14;;;;;;;1.45;1.30;;;;;;;17.19;38.47;95312.94;5032445;27;99347;-48
2021/04/09 18:22:40;;;;;;;1.60;1.50;;;;;;;17.41;38.25;95311.41;5032480;28;99093;-46
2021/04/09 18:25:07;;;;;;;1.30;1.20;;;;;;;17.63;37.95;95306.31;5033000;27;96762;-46
2021/04/09 18:27:32;;;;;;;1.75;1.50;;;;;;;17.88;37.64;95309.47;5033080;27;96915;-53
2021/04/09 18:29:58;;;;;;;10.55;7.70;;;;;;;18.11;36.99;95299.69;5032053;27;99288;-48
2021/04/09 18:32:24;;;;;;;34.28;30.52;;;;;;;18.24;36.68;95301.06;5031429;28;99399;-50
2021/04/09 18:34:52;;;;;;;17.58;15.60;;;;;;;18.34;35.77;95297.72;5030803;28;97006;-48
2021/04/09 18:37:18;;;;;;;14.25;10.63;;;;;;;18.50;35.58;95304.97;5030499;28;97009;-50
2021/04/09 18:39:45;;;;;;;12.80;9.38;;;;;;;18.58;35.07;95312.09;5027185;27;99519;-46
2021/04/09 18:42:10;;;;;;;9.57;7.93;;;;;;;18.72;35.44;95340.81;5031803;27;99307;-47
2021/04/09 18:44:36;;;;;;;8.52;7.28;;;;;;;18.80;35.27;95337.00;5030836;27;96838;-48
2021/04/09 18:47:02;;;;;;;9.15;7.15;;;;;;;18.87;35.03;95328.09;5030885;28;96956;-50
2021/04/09 18:49:27;;;;;;;7.30;6.60;;;;;;;18.99;35.01;95340.81;5029385;28;99683;-47
2021/04/09 18:51:53;;;;;;;7.75;6.22;;;;;;;19.07;34.62;95347.94;5030431;27;99791;-49
2021/04/09 18:54:19;;;;;;;7.93;6.05;;;;;;;19.15;34.67;95349.59;5030996;28;97111;-47
2021/04/09 18:56:44;;;;;;;8.65;5.72;;;;;;;19.22;34.55;95344.19;5031369;27;96894;-56
2021/04/09 18:59:09;;;;;;;6.47;5.43;;;;;;;19.25;34.39;95348.94;5031726;28;98859;-52
2021/04/09 19:01:35;;;;;;;6.03;5.10;;;;;;;19.34;34.75;95347.84;5031356;27;99355;-49
2021/04/09 19:04:01;;;;;;;6.07;4.82;;;;;;;19.38;34.46;95351.44;5032185;27;96837;-53
2021/04/09 19:06:27;;;;;;;8.18;5.00;;;;;;;19.39;34.21;95347.53;5032323;28;96932;-50
2021/04/09 19:08:53;;;;;;;7.85;5.22;;;;;;;19.36;34.43;95354.56;5031712;27;99640;-50
2021/04/09 19:11:19;;;;;;;6.82;5.25;;;;;;;19.33;34.59;95359.97;5030511;27;97778;-53
2021/04/09 19:13:44;;;;;;;5.88;4.90;;;;;;;19.25;34.87;95351.66;5031145;27;97126;-49
2021/04/09 19:16:10;;;;;;;6.72;4.90;;;;;;;19.05;34.22;95339.31;5031156;27;96903;-59
2021/04/09 19:18:35;;;;;;;9.75;6.03;;;;;;;18.89;33.76;95336.72;5031301;27;99682;-59
2021/04/09 19:21:01;;;;;;;8.25;6.35;;;;;;;18.75;33.53;95342.81;5031350;27;99279;-54
2021/04/09 19:23:27;;;;;;;12.75;7.70;;;;;;;18.64;33.30;95343.44;5031735;27;97017;-52
2021/04/09 19:25:53;;;;;;;11.02;7.78;;;;;;;18.58;33.24;95350.38;5022998;27;96955;-56
2021/04/09 19:28:19;;;;;;;13.70;9.18;;;;;;;18.52;33.52;95349.16;5017756;28;99621;-49
2021/04/09 19:30:44;;;;;;;15.13;9.85;;;;;;;18.45;33.80;95341.63;5017704;28;99010;-51
2021/04/09 19:33:10;;;;;;;13.93;8.27;;;;;;;18.52;33.97;95357.38;5018129;28;96758;-51
2021/04/09 19:35:35;;;;;;;13.52;8.85;;;;;;;18.44;33.90;95355.69;5018415;28;96957;-53
2021/04/09 19:38:02;;;;;;;10.98;8.07;;;;;;;18.33;33.51;95350.03;5017595;28;99677;-60
2021/04/09 19:40:27;;;;;;;13.07;8.15;;;;;;;18.26;33.44;95350.72;5016357;28;99306;-54
2021/04/09 19:42:53;;;;;;;14.45;11.25;;;;;;;18.24;33.80;95344.81;5017024;28;96753;-58
2021/04/09 19:45:19;;;;;;;12.38;9.52;;;;;;;18.20;33.67;95349.44;5017513;28;96999;-57
2021/04/09 19:47:45;;;;;;;14.77;9.00;;;;;;;18.18;33.63;95343.56;5017350;28;99621;-56
2021/04/09 19:50:12;;;;;;;13.00;9.50;;;;;;;18.25;33.83;95354.59;5017238;28;99381;-49
2021/04/09 19:52:37;;;;;;;14.85;8.98;;;;;;;18.03;32.80;95353.47;5018233;28;96687;-51
2021/04/09 19:55:07;;;;;;;15.48;10.45;;;;;;;17.96;33.02;95359.56;5017206;28;96947;-51
2021/04/09 19:57:33;;;;;;;16.00;10.68;;;;;;;17.91;32.97;95346.22;5016529;28;99780;-48
2021/04/09 19:59:58;;;;;;;17.52;12.07;;;;;;;17.86;33.03;95347.31;5016535;28;100042;-54
2021/04/09 20:02:24;;;;;;;17.20;11.55;;;;;;;17.92;33.14;95353.28;4999440;28;96701;-56
2021/04/09 20:04:49;;;;;;;18.55;12.15;;;;;;;17.84;33.16;95354.31;5017065;28;96813;-55
2021/04/09 20:07:15;;;;;;;16.33;11.10;;;;;;;17.77;32.87;95347.56;5016465;28;99579;-56
2021/04/09 20:09:40;;;;;;;19.92;11.85;;;;;;;17.75;33.29;95355.31;5016512;28;97931;-54
2021/04/09 20:12:06;;;;;;;19.80;11.68;;;;;;;17.74;32.85;95351.00;5017252;28;96629;-51
2021/04/09 20:14:32;;;;;;;20.77;12.25;;;;;;;17.71;33.21;95349.00;5016205;28;96987;-55
2021/04/09 20:16:58;;;;;;;21.67;12.95;;;;;;;17.74;33.04;95348.28;5016218;28;99634;-51
2021/04/09 20:19:24;;;;;;;25.25;15.63;;;;;;;17.71;33.28;95351.75;5016795;28;97801;-55
2021/04/09 20:21:49;;;;;;;27.55;17.08;;;;;;;17.65;33.24;95349.69;5016391;28;97384;-55
2021/04/09 20:24:15;;;;;;;25.83;16.27;;;;;;;17.59;33.50;95346.44;5014370;28;96943;-49
2021/04/09 20:26:40;;;;;;;25.60;15.52;;;;;;;17.62;33.11;95356.66;5015809;28;99989;-48
2021/04/09 20:29:06;;;;;;;22.55;13.95;;;;;;;17.72;33.52;95356.06;5016056;28;99670;-58
2021/04/09 20:31:31;;;;;;;21.17;13.27;;;;;;;17.77;33.17;95353.03;5016549;28;96689;-59
2021/04/09 20:33:57;;;;;;;24.02;13.20;;;;;;;17.73;33.24;95348.63;5016552;28;96987;-59
2021/04/09 20:36:22;;;;;;;19.60;12.48;;;;;;;17.72;33.71;95345.13;5014458;28;99394;-62
2021/04/09 20:38:48;;;;;;;18.15;11.95;;;;;;;17.74;33.91;95348.28;5015210;28;99374;-62
2021/04/09 20:41:13;;;;;;;20.10;10.68;;;;;;;17.86;34.05;95341.06;5014783;28;96866;-63
2021/04/09 20:43:39;;;;;;;18.17;10.88;;;;;;;17.83;34.17;95339.06;5016655;28;96851;-58
2021/04/09 20:46:05;;;;;;;17.80;11.15;;;;;;;17.84;33.99;95346.09;5015764;28;98916;-59
2021/04/09 20:48:30;;;;;;;19.40;10.55;;;;;;;17.87;34.27;95339.91;5016024;28;99856;-62
2021/04/09 20:50:56;;;;;;;18.30;10.98;;;;;;;17.87;34.23;95340.69;5016638;28;96635;-60
2021/04/09 20:53:21;;;;;;;20.85;11.93;;;;;;;17.89;34.27;95338.38;5014534;28;96890;-60
2021/04/09 20:55:47;;;;;;;18.60;11.50;;;;;;;17.92;33.88;95336.88;5015751;28;98043;-59
2021/04/09 20:58:12;;;;;;;20.15;10.13;;;;;;;17.88;34.11;95341.50;5015277;28;99753;-63
2021/04/09 21:00:38;;;;;;;18.55;10.73;;;;;;;17.87;34.11;95342.66;5015119;28;96681;-61
2021/04/09 21:03:04;;;;;;;21.85;13.25;;;;;;;17.97;34.39;95350.22;5015983;28;97009;-56
2021/04/09 21:05:29;;;;;;;21.48;14.07;;;;;;;18.09;34.69;95354.75;5015548;28;99580;-56
2021/04/09 21:07:55;;;;;;;21.58;14.13;;;;;;;18.15;34.54;95360.69;5014063;28;97787;-56
2021/04/09 21:10:21;;;;;;;22.70;15.05;;;;;;;18.13;34.58;95360.25;5014738;28;97504;-58
2021/04/09 21:12:47;;;;;;;20.98;14.13;;;;;;;18.14;34.90;95356.38;5015904;28;96891;-55
2021/04/09 21:15:15;;;;;;;21.92;14.18;;;;;;;18.19;34.71;95361.53;5013776;28;101638;-61
2021/04/09 21:17:40;;;;;;;18.58;12.00;;;;;;;18.18;35.09;95349.03;5015617;28;99220;-61
2021/04/09 21:20:06;;;;;;;19.92;12.98;;;;;;;18.17;34.54;95336.50;5014716;28;96642;-62
2021/04/09 21:22:31;;;;;;;20.65;13.85;;;;;;;18.12;34.42;95339.53;5014965;28;96952;-60
2021/04/09 21:24:57;;;;;;;21.25;12.70;;;;;;;18.10;34.68;95330.91;5014969;28;98789;-60
2021/04/09 21:27:23;;;;;;;22.00;15.02;;;;;;;18.07;34.47;95338.69;5015314;28;99260;-68
2021/04/09 21:29:48;;;;;;;20.80;15.35;;;;;;;18.03;34.25;95332.38;5015956;28;96801;-62
2021/04/09 21:32:14;;;;;;;27.75;22.00;;;;;;;17.98;34.16;95335.38;5014296;28;97030;-65
2021/04/09 21:34:40;;;;;;;31.05;23.77;;;;;;;17.96;34.30;95332.22;5015277;28;98217;-56
2021/04/09 21:37:05;;;;;;;27.73;21.23;;;;;;;17.90;34.10;95333.72;4996754;28;101147;-61
2021/04/09 21:39:31;;;;;;;29.27;23.55;;;;;;;17.90;34.23;95339.19;5014423;28;96745;-57
2021/04/09 21:41:56;;;;;;;27.45;20.50;;;;;;;17.90;34.11;95331.00;5015252;28;97160;-57
2021/04/09 21:44:22;;;;;;;25.75;18.73;;;;;;;17.89;33.88;95334.88;5014987;28;100194;-57
2021/04/09 21:46:47;;;;;;;25.58;17.67;;;;;;;17.95;34.54;95338.06;5014879;28;99597;-61
2021/04/09 21:49:13;;;;;;;27.25;18.55;;;;;;;17.99;34.24;95333.47;5014076;28;96775;-47
2021/04/09 21:51:38;;;;;;;26.95;18.90;;;;;;;17.97;34.79;95328.34;5015136;28;96915;-58
2021/04/09 21:54:04;;;;;;;28.27;18.98;;;;;;;17.99;34.18;95331.53;5014625;28;99394;-59
2021/04/09 21:56:29;;;;;;;27.38;22.15;;;;;;;17.96;34.34;95334.97;5014654;28;99557;-57
2021/04/09 21:58:55;;;;;;;24.95;16.63;;;;;;;17.99;34.16;95333.47;5015389;28;96819;-59
2021/04/09 22:01:21;;;;;;;23.38;16.58;;;;;;;17.95;34.05;95336.16;5015296;28;96950;-61
2021/04/09 22:03:46;;;;;;;20.05;13.77;;;;;;;17.95;34.15;95330.69;5014595;28;99531;-58
2021/04/09 22:06:11;;;;;;;22.60;15.80;;;;;;;17.95;34.34;95336.16;5015079;28;98445;-55
2021/04/09 22:08:37;;;;;;;23.25;15.27;;;;;;;17.96;34.21;95339.66;5015401;28;96634;-61
2021/04/09 22:11:03;;;;;;;23.08;16.98;;;;;;;17.98;34.31;95335.38;5014958;28;96892;-58
2021/04/09 22:13:28;;;;;;;25.10;17.98;;;;;;;17.98;33.93;95329.16;5014097;28;99412;-54
2021/04/09 22:15:54;;;;;;;25.13;18.95;;;;;;;17.99;34.23;95337.00;5014776;28;97817;-58
2021/04/09 22:18:19;;;;;;;23.83;17.00;;;;;;;17.94;34.04;95331.84;5014565;28;96655;-51
2021/04/09 22:20:45;;;;;;;24.55;16.08;;;;;;;17.99;34.71;95330.72;5014712;28;96879;-51
2021/04/09 22:23:11;;;;;;;24.20;15.98;;;;;;;17.89;34.35;95329.41;5014320;28;100102;-59
2021/04/09 22:25:40;;;;;;;23.02;16.48;;;;;;;17.87;34.52;95328.97;5013736;28;99032;-57
2021/04/09 22:28:13;;;;;;;19.25;13.45;;;;;;;17.84;34.55;95325.03;5014088;28;96684;-51
2021/04/09 22:30:39;;;;;;;18.10;11.25;;;;;;;17.87;34.57;95328.97;5014391;28;96813;-58
2021/04/09 22:33:05;;;;;;;17.15;11.40;;;;;;;17.89;34.29;95323.94;5013931;28;99673;-56
2021/04/09 22:35:31;;;;;;;15.75;10.80;;;;;;;17.86;34.40;95321.94;5013441;28;99295;-54
2021/04/09 22:37:57;;;;;;;14.98;10.40;;;;;;;17.88;34.41;95325.88;5014292;28;96626;-52
2021/04/09 22:40:23;;;;;;;15.38;10.48;;;;;;;17.84;34.60;95324.25;5013938;28;96948;-55
2021/04/09 22:42:48;;;;;;;15.52;9.35;;;;;;;17.86;34.53;95321.94;5013736;28;99540;-54
2021/04/09 22:45:14;;;;;;;17.08;9.85;;;;;;;17.89;34.33;95323.94;5014608;28;99188;-57
2021/04/09 22:47:40;;;;;;;16.65;9.98;;;;;;;17.90;34.04;95328.25;5014534;28;96896;-53
2021/04/09 22:50:07;;;;;;;21.65;14.52;;;;;;;17.94;34.05;95326.38;5013516;28;96908;-57
2021/04/09 22:52:33;;;;;;;20.75;14.45;;;;;;;17.91;34.11;95330.59;5013106;28;100098;-53
2021/04/09 22:54:59;;;;;;;22.27;15.57;;;;;;;17.88;34.38;95325.09;5012795;28;98905;-52
2021/04/09 22:57:24;;;;;;;24.33;17.23;;;;;;;17.93;33.89;95314.63;5013832;28;96838;-47
2021/04/09 22:59:50;;;;;;;23.80;15.35;;;;;;;17.95;34.34;95336.16;5014182;28;96900;-50
2021/04/09 23:02:15;;;;;;;28.23;14.55;;;;;;;17.95;33.21;95325.22;5017280;28;97464;-53
2021/04/09 23:04:40;;;;;;;20.70;14.05;;;;;;;17.78;33.37;95316.34;5016854;28;99291;-59
2021/04/09 23:07:06;;;;;;;20.38;12.90;;;;;;;17.76;33.73;95313.19;5017392;28;96727;-55
2021/04/09 23:09:31;;;;;;;22.13;15.15;;;;;;;17.67;33.78;95309.91;5017450;28;96895;-48
2021/04/09 23:11:57;;;;;;;21.05;14.63;;;;;;;17.54;33.91;95312.03;5016834;28;99553;-53
2021/04/09 23:14:22;;;;;;;22.50;16.48;;;;;;;17.48;34.63;95308.78;5015822;28;99527;-57
2021/04/09 23:16:48;;;;;;;26.35;16.13;;;;;;;17.54;34.31;95322.16;5017642;28;96601;-58
2021/04/09 23:19:13;;;;;;;25.17;12.25;;;;;;;17.49;31.81;95304.13;5017701;28;96868;-56
2021/04/09 23:21:39;;;;;;;24.25;12.27;;;;;;;17.54;32.57;95305.75;5017098;28;99529;-55
2021/04/09 23:24:05;;;;;;;19.17;11.43;;;;;;;17.33;33.29;95296.06;5017291;28;97695;-55
2021/04/09 23:26:30;;;;;;;14.43;10.18;;;;;;;17.22;33.55;95295.06;5017783;28;96681;-55
2021/04/09 23:28:56;;;;;;;17.42;10.07;;;;;;;17.18;33.57;95301.25;5017494;28;96960;-55
2021/04/09 23:31:21;;;;;;;16.00;10.05;;;;;;;17.20;33.89;95298.13;5017057;28;99728;-58
2021/04/09 23:33:47;;;;;;;23.98;11.07;;;;;;;17.11;30.29;95306.56;5017092;28;99788;-55
2021/04/09 23:36:12;;;;;;;17.73;10.65;;;;;;;17.21;31.98;95288.78;5017321;28;96823;-60
2021/04/09 23:38:38;;;;;;;17.73;9.25;;;;;;;17.26;31.94;95285.78;5017328;28;96890;-59
2021/04/09 23:41:03;;;;;;;14.38;8.90;;;;;;;17.28;32.78;95282.69;5016072;28;99577;-59
2021/04/09 23:43:29;;;;;;;18.38;10.98;;;;;;;17.23;32.91;95286.50;5016983;28;98892;-59
2021/04/09 23:45:54;;;;;;;19.25;12.02;;;;;;;17.25;33.24;95288.88;5017340;28;96831;-58
2021/04/09 23:48:20;;;;;;;22.65;15.52;;;;;;;17.22;33.93;95284.16;5017356;28;96895;-60
2021/04/09 23:50:45;;;;;;;20.15;12.18;;;;;;;17.22;32.96;95289.59;5016609;28;99683;-56
2021/04/09 23:53:11;;;;;;;17.23;10.95;;;;;;;17.32;32.80;95283.56;5016509;28;99572;-57
2021/04/09 23:55:36;;;;;;;18.58;11.63;;;;;;;17.36;33.24;95270.75;5016729;28;96875;-56
2021/04/09 23:58:02;;;;;;;20.48;12.18;;;;;;;17.34;33.87;95270.31;5017136;28;97316;-58
